Latest Weather Observations for Jabiru

IDD60801

Issued at 10:02 am CST Sunday 1 February 2015 (issued every 30 minutes, with the page automatically refreshed every 10 minutes)

About weather observations | Map of weather stations | Latest weather observations for NT | Other Formats
Station Details ID: 014198 Name: JABIRU AIRPORT Lat: -12.66 Lon: 132.89 Height: 26.5 m
Data from the previous 72 hours. | See also: Recent months at Jabiru
Date/Time
CST
Temp
°C
App
Temp
°C
Dew
Point
Rel
Hum
%
Delta-T
°C
Wind Press
QNH
hPa
Press
MSL
hPa
Rain
since 9 am
mm
Dir
 
Spd
km/h
Gust
km/h
Spd
kts
Gust
kts
01/10:00am 30.6 34.6 25.0 72 3.9 WSW 13 19 7 10 1009.1 1008.9 0.0
01/09:30am 30.1 33.6 24.9 73 3.7 WSW 15 20 8 11 1009.2 1009.0 0.0
01/09:00am 28.9 32.9 25.1 80 2.7 SW 13 19 7 10 1008.9 1008.6 0.0
01/08:30am 28.7 32.4 25.1 81 2.5 WSW 15 24 8 13 1008.8 1008.5 0.0
01/08:00am 28.1 32.4 24.9 83 2.2 WSW 11 15 6 8 1008.6 1008.3 0.0
01/07:30am 27.1 33.2 25.1 89 1.4 WSW 2 9 1 5 1008.4 1008.1 0.0
01/07:00am 26.4 33.0 25.2 93 0.8 CALM 0 0 0 0 1007.9 1007.7 0.0
01/06:30am 26.2 32.7 25.0 93 0.8 CALM 0 0 0 0 1007.6 1007.4 0.0
01/06:00am 26.3 32.8 25.1 93 0.8 CALM 0 0 0 0 1007.5 1007.3 0.0
01/05:30am 26.3 32.7 24.9 92 1.0 CALM 0 0 0 0 1007.4 1007.2 0.0
01/05:00am 26.5 33.0 25.1 92 1.0 CALM 0 0 0 0 1007.0 1006.8 0.0
01/04:30am 26.6 32.0 25.2 92 1.0 WSW 6 7 3 4 1006.8 1006.6 0.0
01/04:00am 26.8 32.4 25.4 92 1.0 SW 6 7 3 4 1006.8 1006.6 0.0
01/03:30am 27.2 33.5 25.4 90 1.3 WSW 2 7 1 4 1006.8 1006.6 0.0
01/03:00am 26.9 33.5 25.3 91 1.1 CALM 0 0 0 0 1007.0 1006.8 0.0
01/02:30am 27.1 33.7 25.3 90 1.3 CALM 0 0 0 0 1007.2 1007.0 0.0
01/02:00am 27.4 33.5 24.5 84 2.0 CALM 0 0 0 0 1007.4 1007.2 0.0
01/01:30am 27.2 33.4 24.6 86 1.8 CALM 0 4 0 2 1007.5 1007.3 0.0
01/01:00am 27.4 32.6 24.8 86 1.8 N 6 7 3 4 1007.6 1007.4 0.0
01/12:30am 27.4 33.7 24.8 86 1.8 CALM 0 0 0 0 1008.2 1007.9 0.0
01/12:00am 27.7 33.2 24.1 81 2.5 W 2 6 1 3 1008.6 1008.3 0.0
 
Date/Time
CST
Temp
°C
App
Temp
°C
Dew
Point
Rel
Hum
%
Delta-T
°C
Wind Press
QNH
hPa
Press
MSL
hPa
Rain
since 9 am
mm
Dir
 
Spd
km/h
Gust
km/h
Spd
kts
Gust
kts
31/11:30pm 28.0 33.1 24.6 82 2.4 NW 6 7 3 4 1008.8 1008.5 0.0
31/11:00pm 28.1 33.0 24.3 80 2.6 NW 6 7 3 4 1009.1 1008.9 0.0
31/10:30pm 28.3 34.2 24.1 78 2.9 CALM 0 0 0 0 1009.0 1008.8 0.0
31/10:00pm 28.1 32.9 24.5 81 2.5 NNW 7 9 4 5 1008.6 1008.3 0.0
31/09:30pm 28.4 33.7 25.2 83 2.3 NNW 7 11 4 6 1008.7 1008.4 0.0
31/09:00pm 28.2 33.5 25.0 83 2.2 NE 6 7 3 4 1008.4 1008.1 0.0
31/08:30pm 28.3 32.6 24.9 82 2.4 E 11 13 6 7 1007.9 1007.7 0.0
31/08:00pm 28.3 33.2 25.3 84 2.1 ESE 9 15 5 8 1007.8 1007.6 0.0
31/07:30pm 28.4 33.7 25.2 83 2.3 ESE 7 9 4 5 1007.0 1006.8 0.0
31/07:00pm 28.9 35.2 25.3 81 2.5 SSE 2 7 1 4 1006.9 1006.7 0.0
31/06:30pm 29.2 33.6 24.5 76 3.3 WSW 9 11 5 6 1005.3 1005.1 0.0
31/06:00pm 29.4 33.0 23.8 72 3.9 WSW 11 15 6 8 1005.6 1005.4 0.0
31/05:30pm 29.8 32.0 24.0 71 4.0 NW 19 26 10 14 1005.7 1005.5 0.0
31/05:00pm 32.2 34.3 23.7 61 5.9 WNW 19 24 10 13 1005.3 1005.1 0.0
31/04:30pm 33.8 34.7 21.6 49 8.3 W 19 26 10 14 1005.0 1004.8 0.0
31/04:00pm 34.0 36.1 22.4 50 8.0 W 15 20 8 11 1004.9 1004.7 0.0
31/03:30pm 33.8 35.6 23.5 55 7.2 W 20 26 11 14 1005.2 1005.0 0.0
31/03:00pm 33.8 36.1 24.4 58 6.6 W 20 30 11 16 1005.6 1005.4 0.0
31/02:30pm 34.9 37.4 23.2 50 8.1 W 15 20 8 11 1005.7 1005.5 0.0
31/02:00pm 34.1 36.0 22.8 51 7.8 WSW 17 22 9 12 1006.1 1005.9 0.0
31/01:30pm 33.5 36.4 23.8 57 6.8 WSW 15 20 8 11 1006.6 1006.4 0.0
31/01:00pm 33.3 35.9 23.3 55 6.9 WSW 15 22 8 12 1007.1 1006.9 0.0
31/12:30pm 32.5 33.8 22.3 55 7.0 WSW 19 26 10 14 1007.7 1007.5 0.0
31/12:00pm 32.2 34.1 23.4 59 6.1 WSW 19 30 10 16 1008.2 1007.9 0.0
31/11:30am 31.7 34.5 24.3 65 5.2 W 17 20 9 11 1008.5 1008.2 0.0
31/11:00am 31.7 33.8 23.8 63 5.5 WSW 19 26 10 14 1008.9 1008.6 0.0
31/10:30am 30.7 33.3 23.9 67 4.7 W 17 22 9 12 1009.1 1008.9 0.0
31/10:00am 30.3 32.9 24.0 69 4.4 WSW 17 26 9 14 1009.2 1009.0 0.0
31/09:30am 29.6 32.7 24.2 73 3.8 W 15 20 8 11 1009.1 1008.9 0.0
31/09:00am 28.6 31.5 24.4 78 2.9 WNW 17 24 9 13 1009.0 1008.8 3.0
31/08:30am 27.8 32.1 24.2 81 2.5 WNW 9 15 5 8 1008.9 1008.6 3.0
31/08:00am 26.7 31.0 24.2 86 1.7 WNW 9 11 5 6 1008.5 1008.2 3.0
31/07:30am 26.0 31.2 24.8 93 0.8 N 6 9 3 5 1008.4 1008.1 3.0
31/07:00am 25.4 31.8 24.9 97 0.3 CALM 0 0 0 0 1008.3 1008.0 3.0
31/06:30am 25.0 30.3 24.3 96 0.5 N 4 6 2 3 1008.1 1007.8 3.0
31/06:00am 25.0 30.9 24.1 95 0.6 CALM 0 0 0 0 1007.7 1007.5 3.0
31/05:30am 25.1 31.1 24.2 95 0.6 CALM 0 0 0 0 1007.5 1007.3 3.0
31/05:00am 25.2 31.2 24.2 94 0.7 CALM 0 0 0 0 1007.3 1007.1 3.0
31/04:30am 25.2 31.2 24.3 95 0.6 CALM 0 0 0 0 1007.2 1007.0 3.0
31/04:00am 25.4 31.5 24.5 95 0.6 CALM 0 0 0 0 1007.4 1007.2 3.0
31/03:30am 25.2 31.2 24.3 95 0.6 CALM 0 0 0 0 1007.5 1007.3 3.0
31/03:00am 25.3 31.3 24.3 94 0.7 CALM 0 0 0 0 1007.5 1007.3 3.0
31/02:30am 25.2 31.2 24.2 94 0.7 CALM 0 0 0 0 1007.8 1007.6 3.0
31/02:00am 25.4 31.5 24.4 94 0.7 CALM 0 0 0 0 1008.2 1007.9 3.0
31/01:30am 25.6 31.7 24.4 93 0.8 CALM 0 0 0 0 1008.4 1008.1 2.8
31/01:00am 25.5 31.3 23.9 91 1.1 CALM 0 0 0 0 1008.7 1008.4 2.8
31/12:30am 25.3 31.2 24.1 93 0.8 CALM 0 0 0 0 1009.3 1009.1 2.8
31/12:00am 25.1 29.8 23.9 93 0.8 E 6 7 3 4 1009.6 1009.4 2.8
 
Date/Time
CST
Temp
°C
App
Temp
°C
Dew
Point
Rel
Hum
%
Delta-T
°C
Wind Press
QNH
hPa
Press
MSL
hPa
Rain
since 9 am
mm
Dir
 
Spd
km/h
Gust
km/h
Spd
kts
Gust
kts
30/11:30pm 25.0 29.0 23.8 93 0.8 E 9 11 5 6 1010.0 1009.8 2.8
30/11:00pm 25.0 29.0 23.8 93 0.8 E 9 13 5 7 1010.1 1009.9 2.8
30/10:30pm 24.9 28.4 23.5 92 1.0 E 11 13 6 7 1010.0 1009.8 2.8
30/10:00pm 25.2 29.1 23.6 91 1.1 E 9 13 5 7 1010.0 1009.8 2.6
30/09:30pm 25.5 29.8 23.7 90 1.2 E 7 11 4 6 1009.8 1009.6 2.2
30/09:00pm 25.7 29.6 23.6 88 1.4 E 9 13 5 7 1009.8 1009.6 1.6
30/08:30pm 25.7 29.3 23.0 85 1.8 ESE 9 15 5 8 1009.3 1009.1 1.6
30/08:00pm 26.2 28.9 22.9 82 2.2 ESE 13 17 7 9 1008.7 1008.4 1.6
30/07:30pm 27.0 30.8 22.8 78 2.9 SSE 7 13 4 7 1007.6 1007.4 1.6
30/07:00pm 27.6 32.7 25.0 86 1.8 SSE 7 11 4 6 1007.0 1006.8 1.6
30/06:30pm 27.8 32.5 25.0 85 2.0 ENE 9 13 5 7 1006.5 1006.3 1.6
30/06:00pm 29.8 34.6 25.1 76 3.3 W 9 15 5 8 1005.9 1005.7 1.6
30/05:30pm 31.4 35.0 23.8 64 5.3 NW 11 19 6 10 1005.8 1005.6 1.6
30/05:00pm 31.7 35.3 23.8 63 5.5 NW 11 17 6 9 1005.5 1005.3 1.6
30/04:30pm 32.4 34.4 23.6 59 6.1 NW 19 26 10 14 1005.0 1004.8 1.6
30/04:00pm 32.0 34.6 23.3 60 6.0 NW 15 19 8 10 1004.7 1004.5 1.6
30/03:30pm 32.1 35.8 23.9 62 5.7 N 11 20 6 11 1005.1 1004.9 1.6
30/03:00pm 30.8 34.7 24.2 68 4.6 W 11 28 6 15 1005.6 1005.4 1.6
30/02:30pm 31.9 35.3 24.0 63 5.5 WSW 13 20 7 11 1006.0 1005.8 0.2
30/02:00pm 29.9 33.7 24.1 71 4.0 NW 11 20 6 11 1006.5 1006.3 0.2
30/01:30pm 27.0 28.4 23.5 81 2.4 NNW 22 35 12 19 1006.9 1006.7 0.2
30/01:00pm 31.2 32.8 23.3 63 5.5 WNW 20 32 11 17 1007.5 1007.3 0.0
30/12:30pm 33.4 36.1 23.4 55 7.0 WNW 15 22 8 12 1007.7 1007.5 0.0
30/12:00pm 32.2 34.5 23.4 59 6.1 WNW 17 20 9 11 1007.9 1007.7 0.0
30/11:30am 31.7 34.4 23.5 62 5.7 WNW 15 26 8 14 1008.4 1008.1 0.0
30/11:00am 31.1 34.3 23.7 64 5.1 W 13 20 7 11 1008.7 1008.4 0.0
30/10:30am 30.2 33.9 23.9 69 4.4 W 11 17 6 9 1008.6 1008.3 0.0
30/10:00am 29.7 34.4 24.3 73 3.8 W 7 11 4 6 1008.6 1008.3 0.0
30/09:30am 29.1 33.2 24.0 74 3.5 WSW 9 13 5 7 1008.4 1008.1 0.0
30/09:00am 28.4 32.8 24.4 79 2.8 WSW 9 13 5 7 1008.2 1007.9 0.2
30/08:30am 28.0 32.4 24.4 81 2.5 SSW 9 13 5 7 1007.9 1007.7 0.2
30/08:00am 27.4 32.6 24.8 86 1.8 SSE 6 9 3 5 1007.7 1007.5 0.2
30/07:30am 27.3 33.2 25.3 89 1.4 S 4 7 2 4 1007.7 1007.5 0.2
30/07:00am 26.8 33.0 25.2 91 1.1 SW 2 6 1 3 1007.8 1007.6 0.2
30/06:30am 26.5 33.1 25.3 93 0.8 CALM 0 0 0 0 1007.5 1007.3 0.2
30/06:00am 26.8 33.6 25.6 93 0.8 CALM 0 0 0 0 1007.4 1007.2 0.2
30/05:30am 26.7 33.1 24.9 90 1.3 CALM 0 0 0 0 1007.1 1006.9 0.2
30/05:00am 26.6 31.9 25.0 91 1.1 NE 6 7 3 4 1006.9 1006.7 0.2
30/04:30am 26.7 33.3 25.3 92 1.0 CALM 0 0 0 0 1006.6 1006.4 0.2
30/04:00am 26.8 33.3 25.0 90 1.3 CALM 0 0 0 0 1006.5 1006.3 0.2
30/03:30am 26.9 33.4 25.1 90 1.3 CALM 0 0 0 0 1006.7 1006.5 0.2
30/03:00am 26.8 33.4 25.2 91 1.1 CALM 0 0 0 0 1006.7 1006.5 0.2
30/02:30am 27.1 33.4 24.7 87 1.7 CALM 0 0 0 0 1007.0 1006.8 0.2
30/02:00am 27.2 33.5 24.8 87 1.7 CALM 0 0 0 0 1007.1 1006.9 0.2
30/01:30am 27.1 33.4 24.7 87 1.7 CALM 0 0 0 0 1007.5 1007.3 0.2
30/01:00am 27.3 33.5 24.6 85 1.9 CALM 0 0 0 0 1007.8 1007.6 0.2
30/12:30am 27.4 32.5 24.7 85 1.9 N 6 7 3 4 1007.9 1007.7 0.2
30/12:00am 27.7 32.7 24.5 83 2.2 N 6 7 3 4 1008.4 1008.1 0.2
 
Date/Time
CST
Temp
°C
App
Temp
°C
Dew
Point
Rel
Hum
%
Delta-T
°C
Wind Press
QNH
hPa
Press
MSL
hPa
Rain
since 9 am
mm
Dir
 
Spd
km/h
Gust
km/h
Spd
kts
Gust
kts
29/11:30pm 28.0 32.6 24.8 83 2.2 NNW 9 11 5 6 1008.5 1008.2 0.2
29/11:00pm 28.2 32.8 24.8 82 2.4 NNW 9 13 5 7 1008.5 1008.2 0.2
29/10:30pm 28.4 33.1 25.0 82 2.4 NNW 9 13 5 7 1008.1 1007.8 0.2
29/10:00pm 28.8 34.2 25.2 81 2.5 N 6 9 3 5 1007.7 1007.5 0.2
29/09:30pm 29.1 34.2 24.9 78 2.9 NNW 7 11 4 6 1007.3 1007.1 0.2
29/09:00pm 29.5 34.3 24.4 74 3.6 NNW 7 9 4 5 1007.0 1006.8 0.2
29/08:30pm 30.0 34.3 23.7 69 4.4 NW 7 9 4 5 1006.6 1006.4 0.2
29/08:00pm 30.4 34.3 23.6 67 4.7 NNW 9 13 5 7 1006.3 1006.1 0.2
29/07:30pm 31.0 35.3 23.6 64 5.1 NW 7 9 4 5 1005.9 1005.7 0.2
29/07:00pm 31.7 35.9 23.5 62 5.7 NW 7 11 4 6 1005.4 1005.2 0.2
29/06:30pm 32.8 36.1 23.2 57 6.7 NNW 11 13 6 7 1005.0 1004.8 0.2
29/06:00pm 32.9 35.9 22.0 52 7.4 NW 9 13 5 7 1004.7 1004.5 0.2
29/05:30pm 32.8 36.0 22.3 54 7.2 NNW 9 13 5 7 1004.2 1004.0 0.2
29/05:00pm 33.4 36.9 22.2 52 7.7 NW 7 11 4 6 1004.0 1003.8 0.2
29/04:30pm 33.5 37.4 22.9 53 7.3 NW 7 13 4 7 1003.8 1003.6 0.2
29/04:00pm 33.2 35.3 21.0 48 8.2 W 11 15 6 8 1004.0 1003.8 0.2
29/03:30pm 33.0 34.9 19.8 45 8.8 SW 9 13 5 7 1004.1 1003.9 0.2
29/03:00pm 32.8 35.1 20.7 49 8.1 WSW 9 15 5 8 1004.4 1004.2 0.2
29/02:30pm 32.2 34.0 21.1 52 7.5 SSW 13 19 7 10 1004.9 1004.7 0.2
29/02:00pm 31.2 34.1 21.7 57 6.4 SW 9 13 5 7 1005.2 1005.0 0.2
29/01:30pm 31.0 33.6 22.0 58 6.1 WSW 11 19 6 10 1005.6 1005.4 0.2
29/01:00pm 31.0 34.9 23.6 64 5.1 NW 9 15 5 8 1006.2 1006.0 0.2
29/12:30pm 31.2 34.3 22.8 61 5.8 WNW 11 20 6 11 1006.6 1006.4 0.2
29/12:00pm 31.0 33.5 21.8 58 6.2 W 11 17 6 9 1007.0 1006.8 0.2
29/11:30am 29.7 32.9 22.4 65 5.0 WNW 9 17 5 9 1007.4 1007.2 0.2
29/11:00am 29.4 33.0 22.4 66 4.8 SSW 7 15 4 8 1007.7 1007.5 0.2
29/10:30am 28.4 32.4 23.1 73 3.6 SSW 7 11 4 6 1007.8 1007.6 0.2

Other Formats:

Comma delimited format used in spreadsheet applications
http://www.bom.gov.au/fwo/IDD60801/IDD60801.94137.axf

JavaScript Object Notation format (JSON) in row-major order
http://www.bom.gov.au/fwo/IDD60801/IDD60801.94137.json